Time;durP1;ratioP1;P1;durP2;ratioP2;P2;SDS_P1;SDS_P2;PMS_P1;PMS_P2;Temp;Humidity;BMP_temperature;BMP_pressure;BME280_temperature;BME280_humidity;BME280_pressure;Samples;Min_cycle;Max_cycle;Signal;HPM_P1;HPM_P2
2021/06/20 00:00:12;;;;;;;7.60;7.20;;;;;;;19.73;87.51;95108.38;5032090;28;20254;-69
2021/06/20 00:02:44;;;;;;;7.93;7.43;;;;;;;19.77;87.75;95100.66;5022780;28;20304;-68
2021/06/20 00:05:14;;;;;;;8.07;7.57;;;;;;;19.82;87.94;95108.72;5015600;28;20267;-69
2021/06/20 00:07:44;;;;;;;9.90;8.90;;;;;;;19.77;87.72;95095.31;5010239;28;20318;-69
2021/06/20 00:10:14;;;;;;;7.67;7.27;;;;;;;19.75;87.65;95092.03;5016289;28;20274;-70
2021/06/20 00:12:42;;;;;;;8.27;7.83;;;;;;;19.79;87.57;95093.16;5019690;28;20770;-69
2021/06/20 00:15:15;;;;;;;7.57;7.07;;;;;;;19.75;87.33;95097.41;5027565;28;20232;-69
2021/06/20 00:17:45;;;;;;;10.13;9.30;;;;;;;19.64;87.64;95096.50;5006523;28;20216;-70
2021/06/20 00:20:16;;;;;;;9.77;8.93;;;;;;;19.56;88.12;95097.78;5013155;28;20227;-70
2021/06/20 00:22:44;;;;;;;9.37;8.87;;;;;;;19.56;88.24;95089.75;5005601;28;20756;-69
2021/06/20 00:25:14;;;;;;;7.17;6.77;;;;;;;19.56;88.36;95086.25;5008666;28;20224;-69
2021/06/20 00:27:43;;;;;;;8.50;8.00;;;;;;;19.59;88.76;95081.22;5035910;28;20253;-68
2021/06/20 00:30:15;;;;;;;9.70;8.63;;;;;;;19.65;88.44;95073.22;5042601;28;20231;-69
2021/06/20 00:32:43;;;;;;;9.47;8.77;;;;;;;19.70;88.29;95079.44;5033237;28;20883;-70
2021/06/20 00:35:14;;;;;;;10.27;9.53;;;;;;;19.74;88.26;95071.69;5037190;28;20231;-69
2021/06/20 00:37:43;;;;;;;8.00;7.53;;;;;;;19.76;88.80;95061.56;5038890;28;20223;-69
2021/06/20 00:40:13;;;;;;;8.53;8.13;;;;;;;19.77;88.87;95055.13;5032637;28;20230;-69
2021/06/20 00:42:41;;;;;;;12.27;11.13;;;;;;;19.81;88.49;95048.19;5024766;28;20307;-70
2021/06/20 00:45:11;;;;;;;10.37;9.77;;;;;;;19.77;88.65;95047.09;5025329;28;20223;-69
2021/06/20 00:47:39;;;;;;;10.03;9.20;;;;;;;19.70;88.32;95062.56;5024109;28;20234;-69
2021/06/20 00:50:11;;;;;;;8.80;8.33;;;;;;;19.56;88.62;95087.06;5042703;28;20328;-69
2021/06/20 00:52:42;;;;;;;11.60;8.87;;;;;;;19.26;89.36;95074.19;5028934;28;20821;-69
2021/06/20 00:55:11;;;;;;;10.73;9.87;;;;;;;19.05;90.33;95088.41;5037076;28;20231;-69
2021/06/20 00:57:39;;;;;;;8.00;7.40;;;;;;;18.96;90.70;95074.66;5035212;28;20338;-68
2021/06/20 01:00:10;;;;;;;9.43;8.77;;;;;;;18.94;90.69;95067.97;5028733;28;20208;-69
2021/06/20 01:02:38;;;;;;;9.03;8.43;;;;;;;18.95;91.00;95067.72;5032793;28;20604;-69
2021/06/20 01:05:09;;;;;;;8.80;8.03;;;;;;;18.97;90.91;95065.59;5023868;28;20251;-69
2021/06/20 01:07:37;;;;;;;8.33;7.83;;;;;;;18.99;90.93;95044.75;5025127;28;20299;-70
2021/06/20 01:10:08;;;;;;;9.80;8.73;;;;;;;19.14;91.07;95032.59;5038591;28;20262;-70
2021/06/20 01:12:37;;;;;;;9.67;8.80;;;;;;;19.28;90.03;95028.44;5060654;28;20492;-69
2021/06/20 01:15:07;;;;;;;11.63;10.83;;;;;;;19.36;89.42;95030.66;5035112;28;20764;-70
2021/06/20 01:17:35;;;;;;;9.93;9.17;;;;;;;19.42;88.96;95026.97;5032068;28;20805;-69
2021/06/20 01:20:05;;;;;;;9.60;9.00;;;;;;;19.47;88.61;95023.53;5032540;28;20677;-69
2021/06/20 01:22:37;;;;;;;10.70;9.33;;;;;;;19.48;88.39;95020.63;5036130;28;20440;-69
2021/06/20 01:25:07;;;;;;;9.97;9.13;;;;;;;19.52;88.42;95024.38;5042819;28;20637;-69
2021/06/20 01:27:38;;;;;;;10.17;9.57;;;;;;;19.54;88.46;95010.75;5030998;28;20242;-69
2021/06/20 01:30:08;;;;;;;9.57;9.00;;;;;;;19.53;88.55;95019.84;5034728;28;20764;-69
2021/06/20 01:32:37;;;;;;;11.63;10.57;;;;;;;19.42;88.69;95037.69;5038603;28;20233;-70
2021/06/20 01:35:05;;;;;;;10.10;9.43;;;;;;;19.39;88.77;95032.84;5024957;28;20735;-70
2021/06/20 01:37:36;;;;;;;8.33;7.83;;;;;;;19.26;88.89;95025.22;5038959;28;20317;-69
2021/06/20 01:40:05;;;;;;;8.87;8.47;;;;;;;19.21;89.09;95019.84;5033916;28;20207;-69
2021/06/20 01:42:33;;;;;;;9.03;8.20;;;;;;;19.17;89.48;95022.19;5039246;28;20310;-69
2021/06/20 01:45:02;;;;;;;15.23;11.40;;;;;;;19.06;89.75;95036.53;5024710;28;20314;-70
2021/06/20 01:47:30;;;;;;;10.53;9.63;;;;;;;18.94;89.93;95044.72;5032370;28;20315;-68
2021/06/20 01:49:59;;;;;;;9.07;8.30;;;;;;;18.87;90.19;95033.41;5030097;28;20305;-68
2021/06/20 01:52:28;;;;;;;16.23;9.77;;;;;;;18.80;90.72;95027.44;5037029;28;20215;-69
2021/06/20 01:54:58;;;;;;;8.63;8.27;;;;;;;18.78;90.85;95026.88;5034042;28;20222;-69
2021/06/20 01:57:29;;;;;;;9.00;8.27;;;;;;;18.74;91.06;95023.06;5025639;28;20247;-69
2021/06/20 01:59:59;;;;;;;9.50;8.80;;;;;;;18.72;91.19;95030.53;5024676;28;20538;-69
2021/06/20 02:02:29;;;;;;;9.90;8.63;;;;;;;18.72;90.60;95014.50;5041134;28;20306;-69
2021/06/20 02:04:57;;;;;;;10.73;9.93;;;;;;;18.65;90.97;95024.56;5037928;28;20216;-69
2021/06/20 02:07:26;;;;;;;10.87;10.03;;;;;;;18.63;91.05;95024.00;5024668;28;20642;-69
2021/06/20 02:09:55;;;;;;;9.97;9.37;;;;;;;18.60;91.20;95022.63;5024713;28;20250;-69
2021/06/20 02:12:27;;;;;;;9.63;9.03;;;;;;;18.58;91.47;95023.94;5029891;28;20641;-69
2021/06/20 02:14:55;;;;;;;11.83;9.63;;;;;;;18.48;91.67;95038.00;5039890;28;20227;-69
2021/06/20 02:17:25;;;;;;;11.23;10.33;;;;;;;18.48;90.65;95044.13;5037898;28;20322;-69
2021/06/20 02:19:55;;;;;;;11.40;10.57;;;;;;;18.45;90.22;95038.47;5031468;28;20218;-69
2021/06/20 02:22:25;;;;;;;10.97;10.10;;;;;;;18.26;91.25;95043.28;5041021;28;20281;-69
2021/06/20 02:24:53;;;;;;;9.30;8.80;;;;;;;18.26;91.24;95048.63;5033215;28;20307;-69
2021/06/20 02:27:21;;;;;;;10.93;10.00;;;;;;;18.17;91.62;95028.75;5035583;28;20236;-69
2021/06/20 02:29:53;;;;;;;13.07;11.67;;;;;;;18.12;91.72;95032.16;5031433;28;20231;-69
2021/06/20 02:32:21;;;;;;;11.27;10.30;;;;;;;17.98;91.89;95046.09;5026595;28;20515;-69
2021/06/20 02:34:50;;;;;;;11.67;9.70;;;;;;;17.90;92.50;95048.13;5026822;28;20235;-69
2021/06/20 02:37:20;;;;;;;10.13;9.47;;;;;;;17.84;92.64;95051.78;5027803;28;20251;-69
2021/06/20 02:39:48;;;;;;;11.07;10.37;;;;;;;17.76;92.94;95052.19;5029237;28;20238;-69
2021/06/20 02:42:17;;;;;;;9.77;9.17;;;;;;;17.78;93.15;95050.09;5034515;28;20364;-69
2021/06/20 02:44:46;;;;;;;10.27;9.50;;;;;;;17.77;93.50;95053.81;5020050;28;20429;-68
2021/06/20 02:47:15;;;;;;;12.03;11.03;;;;;;;17.84;93.70;95051.78;5034100;28;20303;-69
2021/06/20 02:49:44;;;;;;;11.20;10.40;;;;;;;17.82;94.19;95053.06;5024778;28;20250;-69
2021/06/20 02:52:15;;;;;;;13.87;12.73;;;;;;;17.74;94.67;95058.81;5038503;28;20288;-67
2021/06/20 02:54:50;;;;;;;13.77;12.77;;;;;;;17.73;94.50;95066.00;5040837;28;20226;-66
2021/06/20 02:57:19;;;;;;;12.00;10.43;;;;;;;17.79;94.13;95062.38;5020099;28;20840;-67
2021/06/20 02:59:49;;;;;;;12.63;11.63;;;;;;;17.70;93.80;95055.81;5024226;28;20219;-66
2021/06/20 03:02:18;;;;;;;12.33;11.33;;;;;;;17.71;93.81;95067.31;5031031;28;20227;-66
2021/06/20 03:04:47;;;;;;;11.53;10.83;;;;;;;17.65;93.80;95063.75;5044224;28;20235;-66
2021/06/20 03:07:15;;;;;;;11.97;11.10;;;;;;;17.59;94.21;95067.38;5031610;28;20834;-66
2021/06/20 03:09:44;;;;;;;12.90;11.83;;;;;;;17.55;94.75;95076.88;5028734;28;20220;-66
2021/06/20 03:12:13;;;;;;;11.77;10.67;;;;;;;17.59;94.42;95072.69;5026776;28;20222;-67
2021/06/20 03:14:44;;;;;;;10.30;9.50;;;;;;;17.59;94.38;95080.69;5038971;28;20223;-66
2021/06/20 03:17:13;;;;;;;11.47;10.53;;;;;;;17.60;94.49;95082.31;5031309;28;20482;-67
2021/06/20 03:19:44;;;;;;;10.53;9.80;;;;;;;17.64;94.41;95072.75;5038085;28;20546;-67
2021/06/20 03:22:13;;;;;;;10.87;10.20;;;;;;;17.71;94.84;95056.63;5037231;28;21418;-67
2021/06/20 03:24:44;;;;;;;9.97;9.17;;;;;;;17.76;94.93;95049.53;5026417;28;20235;-66
2021/06/20 03:27:12;;;;;;;9.37;8.47;;;;;;;17.83;94.86;95058.19;5043449;28;20306;-67
2021/06/20 03:29:40;;;;;;;10.73;10.10;;;;;;;17.91;94.88;95059.63;5041261;28;20250;-66
2021/06/20 03:32:09;;;;;;;11.73;10.93;;;;;;;18.05;94.39;95068.09;5037665;28;20359;-67
2021/06/20 03:34:37;;;;;;;10.50;9.90;;;;;;;18.21;93.39;95080.63;5047414;28;20747;-67
2021/06/20 03:37:07;;;;;;;10.67;9.97;;;;;;;18.29;92.71;95098.91;5044588;28;20222;-67
2021/06/20 03:39:35;;;;;;;10.67;9.97;;;;;;;18.36;92.77;95094.19;5044841;28;20310;-66
2021/06/20 03:42:04;;;;;;;13.10;11.53;;;;;;;18.31;92.40;95104.81;5029596;28;20249;-66
2021/06/20 03:44:33;;;;;;;10.97;10.07;;;;;;;18.31;92.58;95120.84;5033343;28;20238;-66
2021/06/20 03:47:01;;;;;;;10.93;10.13;;;;;;;18.27;92.71;95135.72;5030155;28;20708;-65
2021/06/20 03:49:29;;;;;;;13.73;12.53;;;;;;;18.15;92.52;95153.72;5027815;28;20228;-67
2021/06/20 03:51:58;;;;;;;11.77;11.03;;;;;;;18.22;92.78;95166.91;5045850;28;20308;-67
2021/06/20 03:54:27;;;;;;;11.57;10.80;;;;;;;18.26;92.94;95190.19;5043098;28;20317;-66
2021/06/20 03:56:56;;;;;;;11.03;10.10;;;;;;;18.35;92.72;95191.41;5037871;28;20314;-66
2021/06/20 03:59:25;;;;;;;9.60;8.97;;;;;;;18.43;92.79;95188.34;5033468;28;20285;-66
2021/06/20 04:01:54;;;;;;;17.97;12.30;;;;;;;18.51;92.63;95183.63;5034893;28;20222;-66
2021/06/20 04:04:22;;;;;;;11.10;9.77;;;;;;;18.64;91.86;95183.28;5027364;28;20667;-67
2021/06/20 04:06:52;;;;;;;10.03;9.43;;;;;;;18.74;91.25;95170.94;5025020;28;20219;-67
2021/06/20 04:09:19;;;;;;;10.27;9.30;;;;;;;18.87;91.09;95175.09;5030808;28;20261;-67
2021/06/20 04:11:49;;;;;;;8.93;8.37;;;;;;;18.99;90.40;95172.28;5035850;28;20583;-65
2021/06/20 04:14:17;;;;;;;12.50;11.23;;;;;;;19.15;90.03;95168.75;5038213;28;20306;-66
2021/06/20 04:16:45;;;;;;;8.60;8.10;;;;;;;19.32;88.86;95171.38;5030573;28;20230;-67
2021/06/20 04:19:13;;;;;;;8.47;7.97;;;;;;;19.44;89.14;95177.38;5031803;28;20672;-66
2021/06/20 04:21:41;;;;;;;16.07;10.00;;;;;;;19.56;88.77;95186.09;5035563;28;20256;-67
2021/06/20 04:24:10;;;;;;;9.90;9.20;;;;;;;19.67;88.00;95194.25;5032071;28;20242;-66
2021/06/20 04:26:38;;;;;;;7.77;7.37;;;;;;;19.75;87.74;95188.44;5036822;28;20733;-66
2021/06/20 04:29:07;;;;;;;9.23;8.53;;;;;;;19.88;87.95;95190.72;5040679;28;20223;-67
2021/06/20 04:31:36;;;;;;;8.03;7.43;;;;;;;20.00;88.01;95198.59;5042292;28;20302;-67
2021/06/20 04:34:04;;;;;;;8.60;7.93;;;;;;;20.16;87.64;95195.00;5029333;28;20270;-67
2021/06/20 04:36:32;;;;;;;8.67;7.97;;;;;;;20.27;87.59;95187.84;5028446;28;20306;-67
2021/06/20 04:39:00;;;;;;;8.57;8.07;;;;;;;20.39;86.69;95188.47;5040879;28;20306;-66
2021/06/20 04:41:28;;;;;;;9.63;8.93;;;;;;;20.53;85.58;95173.59;5033343;28;20226;-66
2021/06/20 04:43:59;;;;;;;12.23;9.33;;;;;;;20.66;84.13;95170.44;5040714;28;20238;-66
2021/06/20 04:46:32;;;;;;;10.10;9.30;;;;;;;20.81;82.49;95175.09;5038925;28;20253;-67
2021/06/20 04:49:03;;;;;;;10.10;9.07;;;;;;;20.97;81.82;95176.81;5023922;28;20322;-66
2021/06/20 04:51:32;;;;;;;10.87;10.07;;;;;;;21.06;81.76;95177.13;5035498;28;20238;-66
2021/06/20 04:54:01;;;;;;;10.17;9.00;;;;;;;21.18;81.24;95183.06;5031540;28;20663;-67
2021/06/20 04:56:29;;;;;;;11.60;9.37;;;;;;;21.28;81.21;95195.75;5038729;28;20319;-67
2021/06/20 04:58:57;;;;;;;8.70;7.93;;;;;;;21.29;81.63;95200.06;5027394;28;20243;-66
2021/06/20 05:01:25;;;;;;;8.30;7.70;;;;;;;21.34;81.59;95213.50;5032043;28;20330;-67
2021/06/20 05:03:56;;;;;;;9.73;8.70;;;;;;;21.37;82.12;95223.72;5030350;28;20246;-66
2021/06/20 05:06:24;;;;;;;9.70;8.83;;;;;;;21.34;83.25;95231.50;5025287;28;20356;-67
2021/06/20 05:08:52;;;;;;;20.90;10.47;;;;;;;21.21;84.18;95233.56;5040759;28;20306;-66
2021/06/20 05:11:20;;;;;;;9.73;8.87;;;;;;;21.13;83.65;95242.09;5040912;28;20472;-67
2021/06/20 05:13:48;;;;;;;11.93;10.10;;;;;;;21.16;84.13;95246.13;5034124;28;20264;-67
2021/06/20 05:16:17;;;;;;;9.17;8.57;;;;;;;21.07;84.89;95248.50;5038839;28;20227;-67
2021/06/20 05:18:45;;;;;;;11.73;10.70;;;;;;;20.97;86.01;95235.03;5030478;28;20242;-67
2021/06/20 05:21:14;;;;;;;10.37;9.50;;;;;;;20.90;86.26;95237.13;5026117;28;20877;-67
2021/06/20 05:23:43;;;;;;;12.57;9.60;;;;;;;20.79;85.85;95230.09;5026138;28;21054;-67
2021/06/20 05:26:11;;;;;;;9.97;9.27;;;;;;;20.66;86.62;95242.03;5043714;28;20221;-67
2021/06/20 05:28:43;;;;;;;12.53;11.33;;;;;;;20.44;88.70;95258.22;5041004;28;20272;-67
2021/06/20 05:31:11;;;;;;;11.90;10.67;;;;;;;20.34;89.39;95271.50;5042336;28;20736;-67
2021/06/20 05:33:39;;;;;;;10.77;10.13;;;;;;;20.29;89.39;95271.47;5039654;28;20216;-68
2021/06/20 05:36:08;;;;;;;11.43;10.67;;;;;;;20.17;89.70;95267.06;5028871;28;20215;-67
2021/06/20 05:38:37;;;;;;;10.10;9.33;;;;;;;20.12;89.75;95280.44;5035016;28;20322;-67
2021/06/20 05:41:06;;;;;;;8.77;8.27;;;;;;;20.14;89.64;95274.81;5025495;28;20250;-66
2021/06/20 05:43:34;;;;;;;11.47;10.37;;;;;;;20.10;89.65;95287.88;5032039;28;20330;-67
2021/06/20 05:46:02;;;;;;;9.87;9.20;;;;;;;20.09;89.80;95290.81;5035733;28;20749;-67
2021/06/20 05:48:31;;;;;;;9.43;8.87;;;;;;;20.09;89.41;95291.63;5040306;28;20229;-66
2021/06/20 05:50:59;;;;;;;11.53;10.53;;;;;;;20.01;89.91;95288.59;5042096;28;20301;-66
2021/06/20 05:53:27;;;;;;;11.90;11.10;;;;;;;20.02;90.20;95295.56;5038125;28;20222;-67
2021/06/20 05:55:57;;;;;;;11.40;10.50;;;;;;;20.12;89.47;95315.25;5042230;28;20227;-67
2021/06/20 05:58:25;;;;;;;10.00;9.27;;;;;;;20.07;89.54;95320.53;5040533;28;20253;-66
2021/06/20 06:00:53;;;;;;;12.73;11.83;;;;;;;19.89;90.46;95320.88;5029432;28;20231;-67
2021/06/20 06:03:21;;;;;;;12.13;11.13;;;;;;;19.88;90.76;95319.25;5024024;28;20266;-66
2021/06/20 06:05:49;;;;;;;12.80;11.10;;;;;;;19.78;90.66;95327.19;5032601;28;20312;-66
2021/06/20 06:08:20;;;;;;;11.67;9.47;;;;;;;19.79;89.39;95331.47;5026748;28;20289;-67
2021/06/20 06:10:49;;;;;;;8.87;7.97;;;;;;;19.91;87.71;95326.78;5030666;28;20661;-66
2021/06/20 06:13:18;;;;;;;13.97;10.13;;;;;;;19.95;87.11;95345.84;5037622;28;20229;-67
2021/06/20 06:15:46;;;;;;;7.73;6.83;;;;;;;20.04;86.18;95349.72;5040616;28;20310;-66
2021/06/20 06:18:14;;;;;;;14.80;6.33;;;;;;;20.12;85.85;95342.03;5032899;28;20219;-67
2021/06/20 06:20:42;;;;;;;9.57;6.43;;;;;;;20.22;85.40;95327.94;5023939;28;20235;-67
2021/06/20 06:23:12;;;;;;;16.37;6.50;;;;;;;20.10;85.15;95325.38;5022323;28;20232;-67
2021/06/20 06:25:40;;;;;;;10.33;7.60;;;;;;;20.19;85.38;95331.13;5024480;28;20343;-65
2021/06/20 06:28:08;;;;;;;8.87;7.87;;;;;;;20.18;85.85;95343.69;5036196;28;20761;-66
2021/06/20 06:30:37;;;;;;;13.83;10.00;;;;;;;20.08;86.88;95338.25;5032020;28;20257;-67
2021/06/20 06:33:05;;;;;;;9.90;7.13;;;;;;;19.97;87.67;95335.69;5035191;28;20263;-67
2021/06/20 06:35:33;;;;;;;12.27;6.23;;;;;;;19.91;87.67;95318.75;5022707;28;20224;-66
2021/06/20 06:38:01;;;;;;;7.90;6.03;;;;;;;19.90;86.71;95309.09;5031843;28;20229;-67
2021/06/20 06:40:30;;;;;;;13.23;8.17;;;;;;;19.99;86.37;95318.31;5030333;28;20302;-67
2021/06/20 06:42:59;;;;;;;16.50;7.27;;;;;;;19.83;87.04;95335.25;5037438;28;20326;-67
2021/06/20 06:45:27;;;;;;;16.40;7.93;;;;;;;19.86;87.66;95357.00;5045382;28;20645;-67
2021/06/20 06:47:56;;;;;;;16.17;6.53;;;;;;;19.94;86.41;95353.09;5032075;28;20318;-65
2021/06/20 06:50:24;;;;;;;11.93;5.43;;;;;;;19.82;86.72;95349.72;5035964;28;20256;-67
2021/06/20 06:52:52;;;;;;;20.63;8.20;;;;;;;19.91;86.02;95342.84;5038195;28;20258;-66
2021/06/20 06:55:20;;;;;;;12.20;5.60;;;;;;;19.91;86.25;95334.81;5042913;28;20227;-67
2021/06/20 06:57:49;;;;;;;11.03;6.53;;;;;;;19.95;86.15;95344.00;5034875;28;20303;-66
2021/06/20 07:00:19;;;;;;;21.87;6.60;;;;;;;19.88;86.83;95348.72;5050887;28;20227;-66
2021/06/20 07:02:47;;;;;;;11.17;6.23;;;;;;;20.04;86.31;95345.16;5031498;28;20220;-66
2021/06/20 07:05:16;;;;;;;21.07;7.73;;;;;;;20.04;86.56;95339.00;5036880;28;20698;-65
2021/06/20 07:07:45;;;;;;;19.60;8.33;;;;;;;19.99;87.27;95329.03;5035841;28;20234;-66
2021/06/20 07:10:15;;;;;;;14.33;9.10;;;;;;;20.11;86.86;95337.72;5034795;28;20653;-66
2021/06/20 07:12:42;;;;;;;14.27;5.97;;;;;;;20.21;86.57;95330.84;5026870;28;20298;-66
2021/06/20 07:15:12;;;;;;;11.60;5.33;;;;;;;20.33;86.35;95326.19;5039913;28;20230;-67
2021/06/20 07:17:40;;;;;;;16.87;6.07;;;;;;;20.45;86.50;95321.50;5036927;28;21858;-67
2021/06/20 07:20:14;;;;;;;12.37;5.90;;;;;;;20.48;85.93;95325.53;5032979;28;20273;-66
2021/06/20 07:22:45;;;;;;;34.47;9.07;;;;;;;20.72;84.59;95324.97;5031669;28;20821;-66
2021/06/20 07:25:15;;;;;;;14.43;6.33;;;;;;;20.92;84.49;95327.00;5043534;28;20298;-67
2021/06/20 07:27:44;;;;;;;13.53;6.90;;;;;;;21.09;84.51;95332.22;5026805;28;20223;-67
2021/06/20 07:30:15;;;;;;;9.33;7.33;;;;;;;21.20;84.13;95346.50;5054368;28;20223;-66
2021/06/20 07:32:44;;;;;;;17.33;5.73;;;;;;;21.34;84.58;95349.59;5031907;28;20231;-67
2021/06/20 07:35:13;;;;;;;10.97;6.37;;;;;;;21.39;82.28;95325.44;5038455;28;20278;-67
2021/06/20 07:37:41;;;;;;;18.40;7.70;;;;;;;21.51;81.84;95318.03;5038290;28;20239;-66
2021/06/20 07:40:14;;;;;;;17.37;7.27;;;;;;;21.71;82.86;95318.13;5041764;28;20223;-67
2021/06/20 07:42:44;;;;;;;13.53;5.37;;;;;;;22.02;81.87;95326.28;5035619;28;20294;-67
2021/06/20 07:45:14;;;;;;;13.47;7.17;;;;;;;22.27;80.24;95334.47;5037620;28;20351;-66
2021/06/20 07:47:42;;;;;;;18.27;8.63;;;;;;;22.59;77.84;95328.09;5033229;28;20231;-66
2021/06/20 07:50:12;;;;;;;11.17;4.63;;;;;;;22.90;77.24;95324.34;5031304;28;20272;-68
2021/06/20 07:52:40;;;;;;;19.37;6.60;;;;;;;23.10;75.78;95320.03;5026551;28;20705;-67
2021/06/20 07:55:11;;;;;;;17.30;6.53;;;;;;;23.44;75.10;95312.97;5036502;28;20751;-67
2021/06/20 07:57:39;;;;;;;18.90;5.33;;;;;;;23.70;73.35;95305.66;5038654;28;20637;-67
2021/06/20 08:00:09;;;;;;;19.83;5.50;;;;;;;23.93;72.07;95317.69;5025684;28;20251;-67
2021/06/20 08:02:41;;;;;;;28.15;6.13;;;;;;;24.13;71.54;95325.69;5026675;28;20247;-67
2021/06/20 08:05:10;;;;;;;11.52;5.43;;;;;;;24.18;70.93;95326.75;5022652;28;20247;-67
2021/06/20 08:07:38;;;;;;;9.18;4.47;;;;;;;24.28;69.98;95313.22;5040430;28;20692;-67
2021/06/20 08:10:07;;;;;;;12.18;5.43;;;;;;;24.54;70.00;95306.59;5027487;28;20219;-67
2021/06/20 08:12:37;;;;;;;8.02;3.65;;;;;;;24.91;70.09;95302.56;5028242;28;20635;-67
2021/06/20 08:15:06;;;;;;;9.63;5.45;;;;;;;25.18;67.96;95297.47;5037407;28;20660;-67
2021/06/20 08:17:34;;;;;;;14.48;7.68;;;;;;;25.10;68.69;95306.19;5034596;28;20646;-67
2021/06/20 08:20:03;;;;;;;18.83;8.80;;;;;;;25.54;65.52;95299.81;5033174;28;20226;-67
2021/06/20 08:22:31;;;;;;;12.18;5.05;;;;;;;25.96;64.12;95300.97;5040745;28;21089;-67
2021/06/20 08:24:59;;;;;;;10.75;5.10;;;;;;;26.39;63.22;95303.69;5038777;28;20318;-67
2021/06/20 08:27:27;;;;;;;9.07;5.38;;;;;;;26.67;62.94;95308.13;5028937;28;20241;-67
2021/06/20 08:29:56;;;;;;;9.80;4.90;;;;;;;26.83;62.84;95309.50;5029108;28;20353;-67
2021/06/20 08:32:24;;;;;;;14.13;4.60;;;;;;;26.96;61.12;95307.16;5025082;28;20229;-65
2021/06/20 08:34:52;;;;;;;12.80;4.95;;;;;;;26.91;60.53;95300.72;5025694;28;20287;-65
2021/06/20 08:37:20;;;;;;;10.55;5.05;;;;;;;26.89;60.50;95307.53;5030413;28;20666;-65
2021/06/20 08:39:48;;;;;;;10.25;5.40;;;;;;;26.81;60.14;95311.72;5036805;28;20665;-64
2021/06/20 08:42:16;;;;;;;14.13;4.75;;;;;;;26.77;60.06;95313.41;5033027;28;20314;-65
2021/06/20 08:44:44;;;;;;;12.27;6.97;;;;;;;26.76;60.02;95319.91;5033810;28;20284;-64
2021/06/20 08:47:14;;;;;;;9.52;4.03;;;;;;;26.58;58.12;95318.03;5038075;28;20223;-64
2021/06/20 08:49:43;;;;;;;13.77;4.75;;;;;;;26.24;59.33;95324.44;5030733;28;20219;-63
2021/06/20 08:52:11;;;;;;;13.45;3.58;;;;;;;25.96;60.70;95330.72;5044633;28;20281;-65
2021/06/20 08:55:00;;;;;;;19.60;5.95;;;;;;;25.47;61.57;95332.56;5030035;28;20293;-65
2021/06/20 08:57:31;;;;;;;16.13;5.63;;;;;;;25.61;62.23;95327.31;5041058;28;20225;-66
2021/06/20 09:00:00;;;;;;;8.80;4.18;;;;;;;25.62;63.52;95323.50;5032110;28;20313;-65
2021/06/20 09:02:30;;;;;;;21.10;4.88;;;;;;;26.01;62.90;95311.75;5030720;28;20307;-66
2021/06/20 09:04:59;;;;;;;12.07;4.75;;;;;;;26.12;62.51;95310.50;5038973;28;20305;-65
2021/06/20 09:07:35;;;;;;;10.15;5.97;;;;;;;26.22;60.58;95315.78;5031349;28;20246;-65
2021/06/20 09:10:15;;;;;;;6.43;3.97;;;;;;;25.99;61.85;95300.41;5033851;28;20230;-65
2021/06/20 09:12:45;;;;;;;8.05;4.63;;;;;;;26.13;61.03;95295.09;5033158;28;20219;-65
2021/06/20 09:15:15;;;;;;;13.57;2.97;;;;;;;26.31;61.18;95286.19;5031400;28;20688;-65
2021/06/20 09:17:50;;;;;;;10.77;4.57;;;;;;;26.68;61.53;95279.16;5031798;28;20249;-65
2021/06/20 09:20:19;;;;;;;10.45;5.38;;;;;;;26.90;58.30;95266.63;5032002;28;20227;-65
2021/06/20 09:22:57;;;;;;;9.57;5.85;;;;;;;27.10;59.23;95264.69;5026635;28;20306;-65
2021/06/20 09:25:26;;;;;;;6.90;3.38;;;;;;;27.34;59.83;95270.78;5039430;28;20268;-65
2021/06/20 09:27:56;;;;;;;11.38;4.10;;;;;;;27.64;58.83;95268.56;5032795;28;20310;-65
2021/06/20 09:30:26;;;;;;;10.27;4.65;;;;;;;28.00;57.86;95255.13;5039399;28;20310;-65
2021/06/20 09:33:00;;;;;;;10.95;5.05;;;;;;;28.38;57.54;95254.84;5034830;28;20730;-66
2021/06/20 09:35:32;;;;;;;11.70;4.93;;;;;;;28.51;54.60;95249.38;5035130;28;20866;-65
2021/06/20 09:38:00;;;;;;;14.63;4.18;;;;;;;28.50;55.77;95247.78;5043962;28;20269;-65
2021/06/20 09:40:30;;;;;;;15.80;12.15;;;;;;;28.74;56.40;95244.75;5046146;28;20326;-65
2021/06/20 09:42:58;;;;;;;28.10;24.83;;;;;;;29.09;56.84;95245.81;5043346;28;20214;-65
2021/06/20 09:45:28;;;;;;;11.20;9.77;;;;;;;29.44;56.98;95251.41;5043243;28;20249;-65
2021/06/20 09:47:58;;;;;;;9.30;4.35;;;;;;;29.49;53.50;95254.03;5029701;28;20219;-66
2021/06/20 09:50:36;;;;;;;10.35;4.97;;;;;;;29.40;54.57;95245.00;5024831;28;20676;-66
2021/06/20 09:53:06;;;;;;;12.63;6.00;;;;;;;29.31;53.63;95234.09;5045203;28;20296;-66
2021/06/20 09:55:35;;;;;;;9.27;5.53;;;;;;;29.24;52.61;95232.94;5038278;28;20215;-66
2021/06/20 09:58:04;;;;;;;10.20;4.13;;;;;;;29.06;53.42;95237.47;5042909;28;20302;-65
2021/06/20 10:00:41;;;;;;;21.08;8.30;;;;;;;28.94;53.61;95239.97;5026185;28;20232;-65
2021/06/20 10:03:23;;;;;;;17.92;6.32;;;;;;;29.05;53.83;95238.59;5038619;28;20313;-66
2021/06/20 10:05:52;;;;;;;10.65;4.40;;;;;;;28.85;54.68;95239.88;5040354;28;20369;-65
2021/06/20 10:08:21;;;;;;;9.43;5.97;;;;;;;28.83;55.11;95240.19;5028857;28;20310;-65
2021/06/20 10:10:50;;;;;;;10.60;4.47;;;;;;;28.85;54.99;95232.53;5024530;28;20226;-65
2021/06/20 10:13:18;;;;;;;17.52;6.78;;;;;;;28.81;53.14;95225.31;5037193;28;20360;-66
2021/06/20 10:15:46;;;;;;;13.38;6.60;;;;;;;28.81;53.98;95225.31;5040547;28;20237;-65
2021/06/20 10:18:17;;;;;;;6.05;4.60;;;;;;;28.88;55.67;95226.47;5039267;28;20309;-64
2021/06/20 10:20:45;;;;;;;17.27;6.38;;;;;;;28.94;53.71;95229.91;5043978;28;20226;-65
2021/06/20 10:23:23;;;;;;;17.70;6.53;;;;;;;28.78;53.71;95220.50;5041152;28;20309;-66
2021/06/20 10:25:51;;;;;;;11.25;5.47;;;;;;;28.59;53.72;95221.50;5028338;28;20226;-65
2021/06/20 10:28:22;;;;;;;20.70;5.53;;;;;;;28.70;54.69;95223.94;5028224;28;20497;-65
2021/06/20 10:30:51;;;;;;;17.48;5.00;;;;;;;28.87;53.46;95215.91;5041147;28;20211;-66
2021/06/20 10:33:26;;;;;;;16.73;5.93;;;;;;;28.88;53.95;95210.16;5038325;28;20238;-65
2021/06/20 10:35:59;;;;;;;16.58;5.55;;;;;;;28.85;55.52;95220.88;5039045;28;20218;-64
2021/06/20 10:38:33;;;;;;;12.27;5.25;;;;;;;29.01;54.70;95203.09;5031316;28;20327;-65
2021/06/20 10:41:01;;;;;;;32.92;6.20;;;;;;;29.22;53.77;95213.41;5040842;28;20465;-65
2021/06/20 10:43:30;;;;;;;8.68;3.92;;;;;;;29.49;53.70;95205.09;5042562;28;20229;-66
2021/06/20 10:45:58;;;;;;;8.52;3.50;;;;;;;29.71;54.70;95196.81;5034013;28;20216;-66
2021/06/20 10:48:35;;;;;;;9.70;4.85;;;;;;;29.78;54.32;95198.28;5034808;28;20227;-65
2021/06/20 10:51:04;;;;;;;18.17;6.43;;;;;;;29.78;53.68;95190.13;5036491;28;20230;-66
2021/06/20 10:53:43;;;;;;;13.13;5.68;;;;;;;29.66;54.37;95180.66;5040864;28;20233;-66
2021/06/20 10:56:20;;;;;;;15.68;5.53;;;;;;;29.50;53.93;95182.22;5038942;28;20314;-66
2021/06/20 10:58:49;;;;;;;12.50;4.70;;;;;;;29.24;56.04;95181.28;5046619;28;20242;-66
2021/06/20 11:01:19;;;;;;;11.18;4.15;;;;;;;28.98;56.91;95176.53;5037087;28;20681;-65
2021/06/20 11:04:00;;;;;;;11.82;5.15;;;;;;;28.72;57.07;95176.38;5041486;28;20229;-65
2021/06/20 11:06:29;;;;;;;9.43;4.68;;;;;;;28.53;57.92;95181.19;5034880;28;20524;-66
2021/06/20 11:08:58;;;;;;;11.57;5.30;;;;;;;28.35;57.34;95174.88;5037810;28;20230;-65
2021/06/20 11:11:27;;;;;;;16.13;6.35;;;;;;;28.06;58.19;95167.88;5035259;28;20306;-65
2021/06/20 11:14:05;;;;;;;15.38;6.32;;;;;;;27.98;58.63;95155.06;5035438;28;20211;-65
2021/06/20 11:16:35;;;;;;;11.55;4.80;;;;;;;27.91;58.60;95141.13;5031301;28;20211;-64
2021/06/20 11:19:17;;;;;;;15.57;5.50;;;;;;;27.73;59.84;95132.03;5038665;28;20218;-65
2021/06/20 11:21:49;;;;;;;15.93;6.78;;;;;;;27.64;60.87;95122.19;5033160;28;20242;-65
2021/06/20 11:24:19;;;;;;;9.18;3.83;;;;;;;27.49;60.81;95112.47;5033819;28;20669;-64
2021/06/20 11:26:56;;;;;;;14.07;6.30;;;;;;;27.52;61.19;95113.75;5032761;28;20669;-66
2021/06/20 11:29:24;;;;;;;12.93;5.50;;;;;;;27.58;61.45;95109.84;5041039;28;20223;-66
2021/06/20 11:31:55;;;;;;;7.50;4.85;;;;;;;27.63;59.61;95123.28;5034102;28;20444;-63
2021/06/20 11:34:24;;;;;;;9.25;4.63;;;;;;;27.64;59.85;95116.75;5033980;28;20262;-65
2021/06/20 11:36:52;;;;;;;11.60;5.85;;;;;;;27.52;60.05;95119.19;5036495;28;20306;-65